^^
Station Historical Data
Daily Summary for April 9, 2017 Units:  English    Metric   Both
« Previous Day
Next Day »
Daily Weekly Monthly Yearly Custom
  High: Low: Average:
Temperature: 67.5 °F 31.9 °F 51.8 °F
Dew Point: 34.6 °F 22.9 °F 28.2 °F
Humidity: 78 % 23 % 44 %
Wind Speed: 11.0 mph 0.0 mph 1.9 mph
Wind Gust: 17.3 mph - -
Wind:- - WSW
Pressure: 30.21 in 30.06 in -
Precipitation: 0.00 in    
Historical Graphs
 
 
Tabular Data for April 9, 2017
Time Temperature Dew Point Pressure Wind Wind Speed Wind Gust Humidity Rainfall Rate (Hourly) solar Conditions
00:00 40.4 °F 25.9 °F 30.06 in Calm     56 % 0.00 in 0.0 W/m2 SCT
00:05 40.4 °F 25.5 °F 30.06 in Calm     55 % 0.00 in 0.0 W/m2 SCT
00:10 40.3 °F 25.0 °F 30.06 in Calm     54 % 0.00 in 0.0 W/m2 SCT
00:15 39.8 °F 25.4 °F 30.06 in Calm     56 % 0.00 in 0.0 W/m2 SCT
00:20 40.3 °F 26.7 °F 30.07 in Calm     58 % 0.00 in 0.0 W/m2 CLR
00:25 40.5 °F 25.5 °F 30.06 in Calm   3.0 mph 55 % 0.00 in 0.0 W/m2 CLR
00:30 40.4 °F 25.1 °F 30.07 in Calm     54 % 0.00 in 0.0 W/m2 SCT
00:35 40.1 °F 25.2 °F 30.07 in Calm     55 % 0.00 in 0.0 W/m2 SCT
00:40 39.8 °F 24.9 °F 30.07 in WNW 0.2 mph 1.2 mph 55 % 0.00 in 0.0 W/m2 SCT
00:45 39.6 °F 25.2 °F 30.07 in Calm     56 % 0.00 in 0.0 W/m2 SCT
00:50 39.5 °F 25.1 °F 30.07 in Calm     56 % 0.00 in 0.0 W/m2 SCT
00:55 39.3 °F 24.9 °F 30.08 in Calm     56 % 0.00 in 0.0 W/m2 SCT
01:00 39.3 °F 25.7 °F 30.08 in Calm     58 % 0.00 in 0.0 W/m2 SCT
01:05 38.6 °F 25.1 °F 30.08 in Calm     58 % 0.00 in 0.0 W/m2 SCT
01:10 38.2 °F 25.5 °F 30.08 in Calm     60 % 0.00 in 0.0 W/m2 SCT
01:15 38.2 °F 25.5 °F 30.08 in Calm     60 % 0.00 in 0.0 W/m2 SCT
01:20 38.0 °F 26.1 °F 30.08 in Calm     62 % 0.00 in 0.0 W/m2 SCT
01:25 37.7 °F 25.8 °F 30.08 in Calm     62 % 0.00 in 0.0 W/m2 SCT
01:30 37.9 °F 25.6 °F 30.08 in Calm     61 % 0.00 in 0.0 W/m2 SCT
01:35 37.9 °F 25.6 °F 30.08 in Calm     61 % 0.00 in 0.0 W/m2 SCT
01:40 37.6 °F 26.1 °F 30.08 in Calm     63 % 0.00 in 0.0 W/m2 SCT
01:45 37.3 °F 26.2 °F 30.08 in Calm     64 % 0.00 in 0.0 W/m2 SCT
01:50 36.9 °F 25.9 °F 30.08 in Calm     64 % 0.00 in 0.0 W/m2 SCT
01:55 36.8 °F 26.1 °F 30.08 in Calm     65 % 0.00 in 0.0 W/m2 SCT
02:00 36.9 °F 26.2 °F 30.08 in Calm     65 % 0.00 in 0.0 W/m2 SCT
02:05 36.9 °F 26.2 °F 30.08 in Calm     65 % 0.00 in 0.0 W/m2 SCT
02:10 36.5 °F 25.8 °F 30.09 in Calm     65 % 0.00 in 0.0 W/m2 SCT
02:15 36.2 °F 26.3 °F 30.08 in Calm     67 % 0.00 in 0.0 W/m2 SCT
02:20 36.0 °F 26.1 °F 30.09 in Calm     67 % 0.00 in 0.0 W/m2 SCT
02:25 35.8 °F 25.9 °F 30.09 in Calm     67 % 0.00 in 0.0 W/m2 SCT
02:30 35.7 °F 26.2 °F 30.08 in Calm     68 % 0.00 in 0.0 W/m2 SCT
02:35 35.9 °F 26.0 °F 30.09 in Calm     67 % 0.00 in 0.0 W/m2 SCT
02:40 35.8 °F 25.9 °F 30.09 in Calm     67 % 0.00 in 0.0 W/m2 SCT
02:45 36.0 °F 25.4 °F 30.09 in Calm     65 % 0.00 in 0.0 W/m2 SCT
02:50 36.2 °F 25.2 °F 30.09 in Calm     64 % 0.00 in 0.0 W/m2 SCT
02:55 36.2 °F 25.2 °F 30.09 in Calm     64 % 0.00 in 0.0 W/m2 SCT
03:00 36.0 °F 25.4 °F 30.09 in Calm     65 % 0.00 in 0.0 W/m2 SCT
03:05 35.6 °F 25.7 °F 30.09 in Calm     67 % 0.00 in 0.0 W/m2 SCT
03:10 35.0 °F 25.9 °F 30.09 in Calm     69 % 0.00 in 0.0 W/m2 SCT
03:15 34.8 °F 26.0 °F 30.09 in Calm     70 % 0.00 in 0.0 W/m2 SCT
03:20 34.8 °F 26.0 °F 30.09 in Calm     70 % 0.00 in 0.0 W/m2 SCT
03:25 35.0 °F 26.2 °F 30.09 in Calm     70 % 0.00 in 0.0 W/m2 SCT
03:30 35.0 °F 26.2 °F 30.09 in Calm     70 % 0.00 in 0.0 W/m2 SCT
03:35 34.6 °F 25.8 °F 30.09 in Calm     70 % 0.00 in 0.0 W/m2 SCT
03:40 34.4 °F 26.0 °F 30.09 in Calm     71 % 0.00 in 0.0 W/m2 SCT
03:45 34.3 °F 25.9 °F 30.09 in Calm     71 % 0.00 in 0.0 W/m2 SCT
03:51 34.2 °F 26.1 °F 30.09 in Calm     72 % 0.00 in 0.0 W/m2 SCT
03:56 34.1 °F 26.0 °F 30.09 in Calm     72 % 0.00 in 0.0 W/m2 SCT
04:01 34.4 °F 26.3 °F 30.10 in Calm     72 % 0.00 in 0.0 W/m2 SCT
04:06 35.1 °F 26.3 °F 30.10 in Calm     70 % 0.00 in 0.0 W/m2 SCT
04:11 35.5 °F 26.0 °F 30.10 in Calm     68 % 0.00 in 0.0 W/m2 SCT
04:16 35.7 °F 25.4 °F 30.10 in Calm     66 % 0.00 in 0.0 W/m2 SCT
04:21 35.7 °F 25.1 °F 30.10 in Calm     65 % 0.00 in 0.0 W/m2 SCT
04:26 35.4 °F 25.2 °F 30.10 in Calm     66 % 0.00 in 0.0 W/m2 SCT
04:31 35.3 °F 25.4 °F 30.10 in Calm     67 % 0.00 in 0.0 W/m2 SCT
04:36 35.2 °F 25.3 °F 30.11 in Calm     67 % 0.00 in 0.0 W/m2 SCT
04:41 34.4 °F 24.9 °F 30.11 in Calm     68 % 0.00 in 0.0 W/m2 SCT
04:46 33.7 °F 25.0 °F 30.11 in Calm     70 % 0.00 in 0.0 W/m2 SCT
04:51 33.3 °F 25.2 °F 30.12 in Calm     72 % 0.00 in 0.0 W/m2 SCT
04:56 33.0 °F 25.3 °F 30.12 in Calm     73 % 0.00 in 0.0 W/m2 SCT
05:01 32.7 °F 25.0 °F 30.12 in Calm     73 % 0.00 in 0.0 W/m2 SCT
05:06 32.9 °F 25.5 °F 30.13 in Calm     74 % 0.00 in 0.0 W/m2 SCT
05:11 32.7 °F 25.3 °F 30.13 in Calm     74 % 0.00 in 0.0 W/m2 SCT
05:16 32.3 °F 24.9 °F 30.13 in Calm     74 % 0.00 in 0.0 W/m2 SCT
05:21 32.2 °F 25.2 °F 30.13 in Calm     75 % 0.00 in 0.0 W/m2 SCT
05:26 32.5 °F 25.5 °F 30.13 in Calm     75 % 0.00 in 0.0 W/m2 SCT
05:31 32.6 °F 25.6 °F 30.13 in Calm     75 % 0.00 in 0.0 W/m2 SCT
05:36 32.7 °F 25.6 °F 30.13 in Calm     75 % 0.00 in 0.0 W/m2 SCT
05:41 32.4 °F 25.4 °F 30.13 in Calm     75 % 0.00 in 0.0 W/m2 SCT
05:46 32.5 °F 25.8 °F 30.13 in Calm     76 % 0.00 in 0.0 W/m2 SCT
05:51 32.4 °F 25.7 °F 30.13 in Calm     76 % 0.00 in 0.0 W/m2 SCT
05:56 32.2 °F 25.5 °F 30.14 in Calm     76 % 0.00 in 0.0 W/m2 SCT
06:01 32.1 °F 25.4 °F 30.14 in Calm     76 % 0.00 in 0.0 W/m2 SCT
06:06 32.0 °F 25.3 °F 30.14 in Calm     76 % 0.00 in 0.0 W/m2 SCT
06:11 32.1 °F 25.7 °F 30.14 in Calm     77 % 0.00 in 0.0 W/m2 SCT
06:16 31.9 °F 25.5 °F 30.15 in Calm     77 % 0.00 in 0.0 W/m2 SCT
06:21 32.0 °F 25.6 °F 30.15 in Calm     77 % 0.00 in 0.0 W/m2 SCT
06:26 32.2 °F 25.5 °F 30.15 in Calm     76 % 0.00 in 0.0 W/m2 SCT
06:31 32.2 °F 25.5 °F 30.16 in Calm     76 % 0.00 in 0.0 W/m2 SCT
06:36 32.0 °F 25.6 °F 30.16 in Calm     77 % 0.00 in 5.0 W/m2 SCT
06:41 32.1 °F 25.7 °F 30.16 in Calm     77 % 0.00 in 7.0 W/m2 SCT
06:46 32.1 °F 25.7 °F 30.16 in Calm     77 % 0.00 in 11.0 W/m2 SCT
06:51 32.2 °F 25.8 °F 30.17 in Calm     77 % 0.00 in 12.0 W/m2 SCT
06:56 32.0 °F 25.6 °F 30.17 in Calm     77 % 0.00 in 14.0 W/m2 SCT
07:01 32.0 °F 25.9 °F 30.17 in Calm     78 % 0.00 in 16.0 W/m2 SCT
07:06 32.2 °F 26.1 °F 30.17 in Calm     78 % 0.00 in 18.0 W/m2 SCT
07:11 32.4 °F 26.3 °F 30.18 in Calm     78 % 0.00 in 21.0 W/m2 SCT
07:16 32.9 °F 26.5 °F 30.18 in Calm     77 % 0.00 in 30.0 W/m2 SCT
07:21 33.2 °F 26.8 °F 30.18 in Calm     77 % 0.00 in 42.0 W/m2 SCT
07:26 33.5 °F 27.1 °F 30.18 in Calm     77 % 0.00 in 54.0 W/m2 FEW
07:32 34.1 °F 27.0 °F 30.18 in Calm     75 % 0.00 in 70.0 W/m2 FEW
07:37 34.5 °F 27.1 °F 30.18 in Calm     74 % 0.00 in 70.0 W/m2 FEW
07:42 35.1 °F 27.0 °F 30.18 in Calm     72 % 0.00 in 95.0 W/m2 CLR
07:47 35.9 °F 27.7 °F 30.18 in Calm     72 % 0.00 in 123.0 W/m2 SCT
07:52 36.5 °F 28.0 °F 30.18 in Calm     71 % 0.00 in 130.0 W/m2 SCT
07:57 37.2 °F 27.6 °F 30.18 in Calm     68 % 0.00 in 63.0 W/m2 SCT
08:02 37.7 °F 28.1 °F 30.18 in Calm     68 % 0.00 in 113.0 W/m2 SCT
08:07 38.2 °F 28.9 °F 30.19 in Calm     69 % 0.00 in 144.0 W/m2 CLR
08:12 38.7 °F 29.0 °F 30.18 in Calm     68 % 0.00 in 111.0 W/m2 BKN
08:17 39.5 °F 29.4 °F 30.19 in Calm     67 % 0.00 in 155.0 W/m2 SCT
08:22 40.6 °F 29.7 °F 30.19 in Calm     65 % 0.00 in 156.0 W/m2 SCT
08:27 41.7 °F 29.6 °F 30.19 in Calm     62 % 0.00 in 223.0 W/m2 CLR
08:32 42.7 °F 29.4 °F 30.19 in Calm     59 % 0.00 in 311.0 W/m2 CLR
08:37 43.8 °F 29.1 °F 30.19 in Calm     56 % 0.00 in 341.0 W/m2 CLR
08:42 45.1 °F 28.5 °F 30.19 in WNW 0.5 mph 2.3 mph 52 % 0.00 in 404.0 W/m2 CLR
08:47 46.7 °F 28.0 °F 30.19 in WSW 0.2 mph 3.5 mph 48 % 0.00 in 422.0 W/m2 CLR
08:52 47.8 °F 27.5 °F 30.19 in WSW 0.3 mph 3.5 mph 45 % 0.00 in 441.0 W/m2 CLR
08:57 48.5 °F 25.8 °F 30.19 in West 4.1 mph 6.0 mph 41 % 0.00 in 461.0 W/m2 CLR
09:02 48.8 °F 24.9 °F 30.19 in WSW 2.7 mph 6.9 mph 39 % 0.00 in 478.0 W/m2 CLR
09:07 49.3 °F 24.7 °F 30.19 in SSW 1.9 mph 3.5 mph 38 % 0.00 in 494.0 W/m2 CLR
09:12 49.9 °F 25.3 °F 30.19 in WSW 1.6 mph 5.8 mph 38 % 0.00 in 512.0 W/m2 CLR
09:17 50.4 °F 24.4 °F 30.19 in WSW 2.5 mph 4.0 mph 36 % 0.00 in 531.0 W/m2 CLR
09:22 50.8 °F 25.4 °F 30.19 in West 2.8 mph 5.8 mph 37 % 0.00 in 545.0 W/m2 CLR
09:27 51.1 °F 25.0 °F 30.19 in SW 2.8 mph 5.8 mph 36 % 0.00 in 563.0 W/m2 CLR
09:32 51.5 °F 26.1 °F 30.20 in West 4.1 mph 6.9 mph 37 % 0.00 in 578.0 W/m2 CLR
09:37 52.0 °F 26.5 °F 30.20 in WSW 1.3 mph 5.8 mph 37 % 0.00 in 596.0 W/m2 CLR
09:42 52.4 °F 26.2 °F 30.20 in West 5.3 mph 11.5 mph 36 % 0.00 in 610.0 W/m2 CLR
09:47 52.6 °F 27.0 °F 30.20 in WSW 3.2 mph 8.1 mph 37 % 0.00 in 626.0 W/m2 CLR
09:52 52.6 °F 27.0 °F 30.20 in West 5.5 mph 8.1 mph 37 % 0.00 in 642.0 W/m2 CLR
09:57 53.0 °F 26.0 °F 30.20 in WNW 5.0 mph 11.0 mph 35 % 0.00 in 656.0 W/m2 CLR
10:02 53.5 °F 25.8 °F 30.21 in WSW 3.9 mph 6.9 mph 34 % 0.00 in 670.0 W/m2 CLR
10:07 54.0 °F 24.8 °F 30.21 in SSW 5.2 mph 9.2 mph 32 % 0.00 in 684.0 W/m2 CLR
10:12 54.2 °F 24.9 °F 30.21 in WSW 4.4 mph 9.2 mph 32 % 0.00 in 698.0 W/m2 CLR
10:17 54.5 °F 24.4 °F 30.21 in SSW 2.8 mph 10.4 mph 31 % 0.00 in 712.0 W/m2 CLR
10:22 54.5 °F 24.4 °F 30.21 in SW 5.9 mph 11.5 mph 31 % 0.00 in 724.0 W/m2 CLR
10:27 54.6 °F 25.3 °F 30.21 in WNW 3.7 mph 9.2 mph 32 % 0.00 in 738.0 W/m2 CLR
10:32 55.0 °F 24.9 °F 30.21 in WNW 7.8 mph 12.7 mph 31 % 0.00 in 752.0 W/m2 CLR
10:37 55.6 °F 24.6 °F 30.21 in WNW 5.9 mph 7.0 mph 30 % 0.00 in 765.0 W/m2 CLR
10:42 55.9 °F 25.7 °F 30.21 in WSW 4.3 mph 6.9 mph 31 % 0.00 in 777.0 W/m2 CLR
10:47 56.0 °F 26.5 °F 30.21 in West 3.6 mph 9.0 mph 32 % 0.00 in 788.0 W/m2 CLR
10:52 56.2 °F 25.1 °F 30.21 in WSW 2.3 mph 5.8 mph 30 % 0.00 in 798.0 W/m2 CLR
10:57 56.5 °F 22.9 °F 30.21 in West 6.5 mph 11.5 mph 27 % 0.00 in 810.0 W/m2 CLR
11:02 56.0 °F 24.2 °F 30.20 in WSW 2.1 mph 8.1 mph 29 % 0.00 in 819.0 W/m2 CLR
11:07 56.7 °F 23.9 °F 30.20 in West 8.0 mph 10.4 mph 28 % 0.00 in 830.0 W/m2 CLR
11:12 57.0 °F 24.2 °F 30.20 in WSW 6.8 mph 11.5 mph 28 % 0.00 in 838.0 W/m2 CLR
11:17 57.2 °F 24.3 °F 30.20 in West 4.7 mph 10.4 mph 28 % 0.00 in 849.0 W/m2 CLR
11:22 57.5 °F 25.5 °F 30.20 in SSW 4.7 mph 8.1 mph 29 % 0.00 in 858.0 W/m2 CLR
11:27 58.0 °F 25.0 °F 30.20 in SSW 7.4 mph 11.5 mph 28 % 0.00 in 867.0 W/m2 CLR
11:32 58.0 °F 25.9 °F 30.20 in SSW 4.9 mph 6.0 mph 29 % 0.00 in 875.0 W/m2 CLR
11:37 58.4 °F 24.5 °F 30.20 in WSW 4.5 mph 6.9 mph 27 % 0.00 in 882.0 W/m2 CLR
11:42 58.8 °F 25.7 °F 30.19 in SW 4.9 mph 8.1 mph 28 % 0.00 in 891.0 W/m2 CLR
11:47 58.9 °F 24.0 °F 30.20 in WSW 9.3 mph 11.5 mph 26 % 0.00 in 896.0 W/m2 CLR
11:52 58.7 °F 23.9 °F 30.19 in WSW 2.4 mph 10.4 mph 26 % 0.00 in 904.0 W/m2 CLR
11:57 59.3 °F 23.4 °F 30.19 in West 8.1 mph 13.8 mph 25 % 0.00 in 909.0 W/m2 CLR
12:02 59.2 °F 25.2 °F 30.19 in WSW 6.7 mph 17.3 mph 27 % 0.00 in 916.0 W/m2 CLR
12:07 59.7 °F 25.6 °F 30.19 in SW 8.0 mph 10.4 mph 27 % 0.00 in 921.0 W/m2 CLR
12:12 60.3 °F 25.2 °F 30.19 in NW 3.3 mph 8.1 mph 26 % 0.00 in 921.0 W/m2 CLR
12:17 60.5 °F 26.3 °F 30.19 in SW 4.0 mph 7.0 mph 27 % 0.00 in 930.0 W/m2 CLR
12:22 60.4 °F 26.2 °F 30.18 in WNW 6.8 mph 15.0 mph 27 % 0.00 in 932.0 W/m2 CLR
12:27 60.7 °F 25.6 °F 30.18 in West 6.5 mph 12.7 mph 26 % 0.00 in 905.0 W/m2 CLR
12:32 60.7 °F 23.7 °F 30.18 in SW 6.5 mph 15.0 mph 24 % 0.00 in 947.0 W/m2 CLR
12:37 61.1 °F 25.9 °F 30.18 in WNW 4.9 mph 11.5 mph 26 % 0.00 in 954.0 W/m2 CLR
12:42 61.3 °F 24.2 °F 30.18 in WSW 7.3 mph 11.5 mph 24 % 0.00 in 914.0 W/m2 CLR
12:47 61.4 °F 24.2 °F 30.18 in West 8.9 mph 16.1 mph 24 % 0.00 in 933.0 W/m2 CLR
12:52 61.8 °F 25.6 °F 30.18 in West 8.9 mph 15.0 mph 25 % 0.00 in 926.0 W/m2 CLR
12:57 61.6 °F 25.4 °F 30.18 in WNW 5.3 mph 11.5 mph 25 % 0.00 in 951.0 W/m2 CLR
13:02 61.6 °F 25.4 °F 30.18 in WSW 7.0 mph 14.0 mph 25 % 0.00 in 947.0 W/m2 CLR
13:07 61.6 °F 25.4 °F 30.18 in SW 10.5 mph 15.0 mph 25 % 0.00 in 947.0 W/m2 CLR
13:12 61.9 °F 26.6 °F 30.18 in SW 7.7 mph 8.1 mph 26 % 0.00 in 942.0 W/m2 CLR
13:17 62.2 °F 24.9 °F 30.18 in SW 3.3 mph 8.1 mph 24 % 0.00 in 951.0 W/m2 CLR
13:22 62.3 °F 24.0 °F 30.17 in WSW 10.5 mph 13.8 mph 23 % 0.00 in 942.0 W/m2 CLR
13:27 62.7 °F 26.3 °F 30.17 in SW 4.8 mph 9.2 mph 25 % 0.00 in 937.0 W/m2 CLR
13:32 63.2 °F 26.8 °F 30.17 in WNW 9.1 mph 15.0 mph 25 % 0.00 in 937.0 W/m2 CLR
13:37 63.0 °F 27.5 °F 30.17 in WNW 0.5 mph 3.5 mph 26 % 0.00 in 932.0 W/m2 CLR
13:42 63.8 °F 27.3 °F 30.17 in WSW 6.6 mph 8.1 mph 25 % 0.00 in 930.0 W/m2 CLR
13:48 63.4 °F 24.9 °F 30.17 in WSW 10.0 mph 11.5 mph 23 % 0.00 in 933.0 W/m2 CLR
13:53 63.1 °F 25.7 °F 30.17 in West 3.2 mph 10.4 mph 24 % 0.00 in 926.0 W/m2 CLR
13:58 64.1 °F 26.5 °F 30.17 in SW 4.8 mph 6.0 mph 24 % 0.00 in 926.0 W/m2 CLR
14:03 63.8 °F 26.3 °F 30.17 in West 4.1 mph 8.0 mph 24 % 0.00 in 916.0 W/m2 CLR
14:08 64.1 °F 26.5 °F 30.17 in WSW 4.1 mph 12.7 mph 24 % 0.00 in 909.0 W/m2 CLR
14:13 64.0 °F 25.4 °F 30.17 in WSW 8.8 mph 16.1 mph 23 % 0.00 in 889.0 W/m2 CLR
14:18 64.3 °F 28.7 °F 30.16 in SW 5.0 mph 8.1 mph 26 % 0.00 in 886.0 W/m2 CLR
14:23 64.9 °F 27.2 °F 30.16 in West 7.4 mph 13.0 mph 24 % 0.00 in 884.0 W/m2 CLR
14:28 64.9 °F 28.2 °F 30.16 in WSW 4.4 mph 9.2 mph 25 % 0.00 in 807.0 W/m2 CLR
14:33 64.7 °F 27.0 °F 30.16 in SW 7.2 mph 11.5 mph 24 % 0.00 in 865.0 W/m2 CLR
14:38 64.8 °F 29.1 °F 30.16 in West 3.9 mph 9.2 mph 26 % 0.00 in 856.0 W/m2 CLR
14:43 64.5 °F 27.9 °F 30.16 in WSW 6.0 mph 11.5 mph 25 % 0.00 in 860.0 W/m2 CLR
14:48 64.8 °F 29.1 °F 30.16 in WSW 0.6 mph 4.0 mph 26 % 0.00 in 842.0 W/m2 CLR
14:53 65.5 °F 27.7 °F 30.15 in WSW 11.0 mph 17.3 mph 24 % 0.00 in 837.0 W/m2 CLR
14:58 65.4 °F 28.6 °F 30.15 in WSW 5.1 mph 14.0 mph 25 % 0.00 in 824.0 W/m2 CLR
15:03 65.2 °F 28.5 °F 30.15 in SW 6.2 mph 12.0 mph 25 % 0.00 in 816.0 W/m2 CLR
15:08 64.9 °F 28.2 °F 30.15 in WSW 3.7 mph 6.0 mph 25 % 0.00 in 788.0 W/m2 CLR
15:13 65.3 °F 27.5 °F 30.15 in SSW 4.5 mph 10.4 mph 24 % 0.00 in 796.0 W/m2 CLR
15:18 65.7 °F 29.8 °F 30.15 in South 2.8 mph 5.8 mph 26 % 0.00 in 779.0 W/m2 CLR
15:23 66.4 °F 29.5 °F 30.15 in SSW 8.6 mph 13.8 mph 25 % 0.00 in 744.0 W/m2 CLR
15:28 66.0 °F 29.1 °F 30.15 in SSW 6.0 mph 10.4 mph 25 % 0.00 in 749.0 W/m2 CLR
15:33 66.3 °F 28.4 °F 30.14 in SW 3.9 mph 8.1 mph 24 % 0.00 in 747.0 W/m2 CLR
15:38 66.3 °F 28.4 °F 30.14 in West 6.0 mph 15.0 mph 24 % 0.00 in 729.0 W/m2 CLR
15:43 66.1 °F 28.2 °F 30.14 in West 5.5 mph 11.5 mph 24 % 0.00 in 677.0 W/m2 CLR
15:48 67.0 °F 30.0 °F 30.14 in WSW 4.6 mph 11.5 mph 25 % 0.00 in 721.0 W/m2 CLR
15:53 66.8 °F 28.8 °F 30.13 in West 7.4 mph 13.8 mph 24 % 0.00 in 670.0 W/m2 CLR
15:58 66.4 °F 29.5 °F 30.13 in West 2.3 mph 7.0 mph 25 % 0.00 in 657.0 W/m2 CLR
16:03 67.0 °F 30.0 °F 30.13 in WSW 3.1 mph 8.1 mph 25 % 0.00 in 605.0 W/m2 CLR
16:08 67.1 °F 29.1 °F 30.13 in WNW 2.3 mph 5.8 mph 24 % 0.00 in 582.0 W/m2 CLR
16:13 67.1 °F 28.0 °F 30.12 in WNW 3.5 mph 6.9 mph 23 % 0.00 in 555.0 W/m2 CLR
16:18 66.7 °F 28.7 °F 30.13 in SW 5.6 mph 12.7 mph 24 % 0.00 in 547.0 W/m2 CLR
16:23 66.8 °F 29.8 °F 30.12 in SW 1.3 mph 3.5 mph 25 % 0.00 in 512.0 W/m2 CLR
16:28 67.2 °F 30.2 °F 30.12 in SW 5.3 mph 8.1 mph 25 % 0.00 in 492.0 W/m2 CLR
16:33 67.1 °F 30.1 °F 30.12 in WSW 4.5 mph 6.9 mph 25 % 0.00 in 464.0 W/m2 CLR
16:38 66.7 °F 29.7 °F 30.12 in WSW 2.9 mph 8.1 mph 25 % 0.00 in 512.0 W/m2 CLR
16:43 66.5 °F 30.5 °F 30.12 in SW 1.0 mph 3.5 mph 26 % 0.00 in 485.0 W/m2 CLR
16:48 67.0 °F 30.0 °F 30.12 in West 3.9 mph 9.2 mph 25 % 0.00 in 492.0 W/m2 CLR
16:53 67.0 °F 30.0 °F 30.12 in West 0.6 mph 7.0 mph 25 % 0.00 in 457.0 W/m2 CLR
16:58 67.4 °F 30.3 °F 30.12 in SSW 1.4 mph 5.8 mph 25 % 0.00 in 424.0 W/m2 CLR
17:03 67.5 °F 30.4 °F 30.12 in West 6.2 mph 11.5 mph 25 % 0.00 in 396.0 W/m2 CLR
17:08 67.2 °F 31.1 °F 30.12 in West 3.6 mph 6.9 mph 26 % 0.00 in 380.0 W/m2 CLR
17:13 67.0 °F 31.0 °F 30.12 in WSW 2.8 mph 4.0 mph 26 % 0.00 in 325.0 W/m2 CLR
17:18 67.0 °F 30.0 °F 30.12 in West 2.2 mph 5.8 mph 25 % 0.00 in 332.0 W/m2 CLR
17:23 66.8 °F 30.8 °F 30.12 in West 3.5 mph 10.4 mph 26 % 0.00 in 292.0 W/m2 FEW
17:28 66.5 °F 30.5 °F 30.12 in WSW 3.8 mph 6.9 mph 26 % 0.00 in 315.0 W/m2 FEW
17:33 66.6 °F 30.6 °F 30.12 in West 3.2 mph 6.9 mph 26 % 0.00 in 237.0 W/m2 FEW
17:38 66.6 °F 31.5 °F 30.12 in West 2.4 mph 5.8 mph 27 % 0.00 in 190.0 W/m2 SCT
17:43 66.6 °F 31.5 °F 30.12 in Calm   3.5 mph 27 % 0.00 in 176.0 W/m2 SCT
17:48 66.3 °F 31.3 °F 30.12 in WSW 2.8 mph 6.9 mph 27 % 0.00 in 190.0 W/m2 FEW
17:53 66.3 °F 31.3 °F 30.12 in WSW 0.3 mph 2.3 mph 27 % 0.00 in 204.0 W/m2 FEW
17:58 66.4 °F 31.4 °F 30.12 in WSW 0.6 mph 3.5 mph 27 % 0.00 in 225.0 W/m2 CLR
17:59 66.5 °F 32.4 °F 30.12 in SW 0.9 mph 5.8 mph 28 % 0.00 in 229.0 W/m2 CLR
18:04 66.5 °F 30.5 °F 30.12 in SW 1.3 mph 6.9 mph 26 % 0.00 in 258.0 W/m2 CLR
18:09 67.0 °F 32.8 °F 30.12 in SW 2.0 mph 6.0 mph 28 % 0.00 in 237.0 W/m2 CLR
18:14 66.9 °F 31.8 °F 30.12 in Calm   3.5 mph 27 % 0.00 in 209.0 W/m2 CLR
18:19 66.8 °F 30.8 °F 30.12 in WSW 3.6 mph 5.8 mph 26 % 0.00 in 209.0 W/m2 CLR
18:24 66.9 °F 30.9 °F 30.12 in SSW 0.7 mph 1.2 mph 26 % 0.00 in 190.0 W/m2 CLR
18:29 67.0 °F 31.0 °F 30.12 in West 2.7 mph 9.0 mph 26 % 0.00 in 160.0 W/m2 CLR
18:31 67.0 °F 31.9 °F 30.12 in WSW 2.1 mph 4.6 mph 27 % 0.00 in 142.0 W/m2 CLR
18:36 66.8 °F 30.8 °F 30.12 in WSW 2.3 mph   26 % 0.00 in 111.0 W/m2 FEW
18:41 66.5 °F 31.5 °F 30.12 in SSW 0.1 mph 2.0 mph 27 % 0.00 in 86.0 W/m2 FEW
18:46 66.4 °F 31.4 °F 30.11 in SW 0.1 mph 3.5 mph 27 % 0.00 in 76.0 W/m2 FEW
18:51 66.2 °F 31.2 °F 30.11 in SSW 2.0 mph 3.5 mph 27 % 0.00 in 67.0 W/m2 FEW
18:57 66.1 °F 31.1 °F 30.12 in Calm     27 % 0.00 in 58.0 W/m2 FEW
19:02 65.9 °F 31.8 °F 30.12 in Calm     28 % 0.00 in 47.0 W/m2 FEW
19:07 65.7 °F 32.5 °F 30.12 in Calm     29 % 0.00 in 39.0 W/m2 FEW
19:12 65.5 °F 33.2 °F 30.12 in Calm     30 % 0.00 in 30.0 W/m2 FEW
19:17 65.3 °F 32.2 °F 30.12 in Calm   2.3 mph 29 % 0.00 in 23.0 W/m2 FEW
19:22 65.1 °F 32.0 °F 30.12 in Calm   1.2 mph 29 % 0.00 in 16.0 W/m2 SCT
19:27 64.9 °F 31.9 °F 30.12 in Calm     29 % 0.00 in 9.0 W/m2 SCT
19:32 64.5 °F 32.4 °F 30.12 in Calm     30 % 0.00 in 0.0 W/m2 BKN
19:37 64.2 °F 31.3 °F 30.12 in Calm     29 % 0.00 in 0.0 W/m2 BKN
19:42 63.9 °F 31.8 °F 30.13 in Calm     30 % 0.00 in 0.0 W/m2 BKN
19:47 63.5 °F 32.3 °F 30.13 in Calm     31 % 0.00 in 0.0 W/m2 BKN
19:52 63.3 °F 32.9 °F 30.13 in Calm     32 % 0.00 in 0.0 W/m2 BKN
19:57 63.2 °F 32.8 °F 30.13 in Calm     32 % 0.00 in 0.0 W/m2 BKN
20:02 62.8 °F 32.5 °F 30.13 in Calm     32 % 0.00 in 0.0 W/m2 BKN
20:07 62.1 °F 32.6 °F 30.13 in Calm     33 % 0.00 in 0.0 W/m2 BKN
20:12 61.5 °F 34.3 °F 30.14 in Calm     36 % 0.00 in 0.0 W/m2 BKN
20:17 60.9 °F 33.0 °F 30.14 in Calm     35 % 0.00 in 0.0 W/m2 BKN
20:22 60.2 °F 33.8 °F 30.14 in Calm     37 % 0.00 in 0.0 W/m2 BKN
20:27 59.9 °F 34.2 °F 30.14 in Calm   1.2 mph 38 % 0.00 in 0.0 W/m2 BKN
20:32 60.7 °F 32.9 °F 30.14 in SSW 0.8 mph 3.5 mph 35 % 0.00 in 0.0 W/m2 BKN
20:37 61.0 °F 33.1 °F 30.15 in Calm     35 % 0.00 in 0.0 W/m2 BKN
20:42 61.1 °F 33.2 °F 30.15 in Calm   3.0 mph 35 % 0.00 in 0.0 W/m2 BKN
20:47 61.0 °F 33.1 °F 30.15 in Calm   1.2 mph 35 % 0.00 in 0.0 W/m2 BKN
20:52 60.7 °F 32.9 °F 30.16 in Calm     35 % 0.00 in 0.0 W/m2 BKN
20:57 60.6 °F 33.5 °F 30.16 in Calm     36 % 0.00 in 0.0 W/m2 BKN
21:02 60.3 °F 33.2 °F 30.16 in Calm     36 % 0.00 in 0.0 W/m2 BKN
21:07 60.0 °F 33.6 °F 30.16 in Calm     37 % 0.00 in 0.0 W/m2 BKN
21:12 60.0 °F 33.6 °F 30.16 in Calm     37 % 0.00 in 0.0 W/m2 BKN
21:17 59.8 °F 33.5 °F 30.16 in Calm     37 % 0.00 in 0.0 W/m2 BKN
21:22 59.6 °F 33.3 °F 30.17 in Calm     37 % 0.00 in 0.0 W/m2 BKN
21:27 59.5 °F 33.9 °F 30.17 in Calm     38 % 0.00 in 0.0 W/m2 BKN
21:32 59.4 °F 33.1 °F 30.17 in Calm     37 % 0.00 in 0.0 W/m2 BKN
21:37 59.3 °F 33.7 °F 30.17 in Calm     38 % 0.00 in 0.0 W/m2 BKN
21:42 59.2 °F 33.6 °F 30.17 in Calm     38 % 0.00 in 0.0 W/m2 BKN
21:47 59.1 °F 33.5 °F 30.17 in Calm     38 % 0.00 in 0.0 W/m2 BKN
21:52 58.5 °F 33.6 °F 30.17 in Calm     39 % 0.00 in 0.0 W/m2 BKN
21:57 58.3 °F 33.4 °F 30.17 in Calm     39 % 0.00 in 0.0 W/m2 BKN
22:02 58.5 °F 33.6 °F 30.17 in Calm     39 % 0.00 in 0.0 W/m2 BKN
22:07 58.6 °F 33.7 °F 30.17 in Calm     39 % 0.00 in 0.0 W/m2 BKN
22:12 58.1 °F 33.9 °F 30.16 in Calm     40 % 0.00 in 0.0 W/m2 BKN
22:17 57.3 °F 33.8 °F 30.16 in Calm     41 % 0.00 in 0.0 W/m2 BKN
22:22 57.4 °F 33.9 °F 30.16 in Calm     41 % 0.00 in 0.0 W/m2 BKN
22:27 57.5 °F 33.3 °F 30.16 in Calm     40 % 0.00 in 0.0 W/m2 BKN
22:32 56.6 °F 33.2 °F 30.16 in Calm     41 % 0.00 in 0.0 W/m2 BKN
22:37 56.2 °F 33.4 °F 30.16 in Calm     42 % 0.00 in 0.0 W/m2 BKN
22:42 55.7 °F 33.5 °F 30.16 in Calm     43 % 0.00 in 0.0 W/m2 BKN
22:47 56.4 °F 33.6 °F 30.16 in Calm     42 % 0.00 in 0.0 W/m2 BKN
22:52 56.0 °F 33.8 °F 30.16 in Calm     43 % 0.00 in 0.0 W/m2 BKN
22:57 55.6 °F 33.4 °F 30.16 in Calm     43 % 0.00 in 0.0 W/m2 BKN
23:02 55.3 °F 34.3 °F 30.16 in Calm     45 % 0.00 in 0.0 W/m2 BKN
23:07 55.4 °F 34.4 °F 30.16 in Calm     45 % 0.00 in 0.0 W/m2 BKN
23:12 55.2 °F 33.6 °F 30.16 in Calm     44 % 0.00 in 0.0 W/m2 BKN
23:17 55.2 °F 34.2 °F 30.16 in Calm     45 % 0.00 in 0.0 W/m2 BKN
23:22 55.2 °F 34.2 °F 30.16 in Calm     45 % 0.00 in 0.0 W/m2 BKN
23:27 55.6 °F 34.6 °F 30.16 in Calm     45 % 0.00 in 0.0 W/m2 BKN
23:32 55.7 °F 34.1 °F 30.16 in Calm     44 % 0.00 in 0.0 W/m2 BKN
23:37 56.0 °F 33.8 °F 30.16 in Calm     43 % 0.00 in 0.0 W/m2 BKN
23:42 55.3 °F 33.7 °F 30.16 in Calm     44 % 0.00 in 0.0 W/m2 BKN
23:47 55.1 °F 34.1 °F 30.16 in Calm     45 % 0.00 in 0.0 W/m2 BKN
23:52 54.7 °F 33.8 °F 30.16 in Calm     45 % 0.00 in 0.0 W/m2 BKN
23:57 54.1 °F 33.2 °F 30.17 in Calm     45 % 0.00 in 0.0 W/m2 BKN
Air Products Campus Weather
Compliments of Weather Underground - 3.5 mb